sensor_id;sensor_type;location;lat;lon;timestamp;temperature;humidity
44982;DHT22;30716;41.740;-70.400;2023-01-29T00:01:47;24.50;38.70
44982;DHT22;30716;41.740;-70.400;2023-01-29T00:04:13;24.60;37.80
44982;DHT22;30716;41.740;-70.400;2023-01-29T00:06:39;24.70;38.20
44982;DHT22;30716;41.740;-70.400;2023-01-29T00:09:05;24.70;38.00
44982;DHT22;30716;41.740;-70.400;2023-01-29T00:11:32;24.80;37.90
44982;DHT22;30716;41.740;-70.400;2023-01-29T00:13:58;24.80;37.30
44982;DHT22;30716;41.740;-70.400;2023-01-29T00:16:24;24.90;37.90
44982;DHT22;30716;41.740;-70.400;2023-01-29T00:18:50;24.90;37.30
44982;DHT22;30716;41.740;-70.400;2023-01-29T00:21:18;25.00;37.30
44982;DHT22;30716;41.740;-70.400;2023-01-29T00:23:45;25.00;37.20
44982;DHT22;30716;41.740;-70.400;2023-01-29T00:26:12;25.00;37.10
44982;DHT22;30716;41.740;-70.400;2023-01-29T00:28:38;25.00;37.10
44982;DHT22;30716;41.740;-70.400;2023-01-29T00:31:23;25.00;37.10
44982;DHT22;30716;41.740;-70.400;2023-01-29T00:33:50;25.10;37.30
44982;DHT22;30716;41.740;-70.400;2023-01-29T00:36:18;25.10;37.60
44982;DHT22;30716;41.740;-70.400;2023-01-29T00:38:44;25.10;36.80
44982;DHT22;30716;41.740;-70.400;2023-01-29T00:41:26;25.20;36.90
44982;DHT22;30716;41.740;-70.400;2023-01-29T00:44:11;25.20;36.80
44982;DHT22;30716;41.740;-70.400;2023-01-29T00:46:56;25.30;36.70
44982;DHT22;30716;41.740;-70.400;2023-01-29T00:49:22;25.50;36.40
44982;DHT22;30716;41.740;-70.400;2023-01-29T00:51:48;25.50;36.30
44982;DHT22;30716;41.740;-70.400;2023-01-29T00:54:34;25.50;36.30
44982;DHT22;30716;41.740;-70.400;2023-01-29T00:57:02;25.50;36.30
44982;DHT22;30716;41.740;-70.400;2023-01-29T00:59:28;25.50;36.40
44982;DHT22;30716;41.740;-70.400;2023-01-29T01:01:55;25.50;36.30
44982;DHT22;30716;41.740;-70.400;2023-01-29T01:04:40;25.60;36.40
44982;DHT22;30716;41.740;-70.400;2023-01-29T01:07:06;25.60;37.20
44982;DHT22;30716;41.740;-70.400;2023-01-29T01:09:36;25.50;36.40
44982;DHT22;30716;41.740;-70.400;2023-01-29T01:12:21;25.50;36.30
44982;DHT22;30716;41.740;-70.400;2023-01-29T01:14:47;25.60;36.50
44982;DHT22;30716;41.740;-70.400;2023-01-29T01:17:14;25.60;36.40
44982;DHT22;30716;41.740;-70.400;2023-01-29T01:19:40;25.60;36.40
44982;DHT22;30716;41.740;-70.400;2023-01-29T01:22:06;25.60;36.40
44982;DHT22;30716;41.740;-70.400;2023-01-29T01:24:32;25.60;36.50
44982;DHT22;30716;41.740;-70.400;2023-01-29T01:26:59;25.50;36.60
44982;DHT22;30716;41.740;-70.400;2023-01-29T01:29:25;25.50;36.70
44982;DHT22;30716;41.740;-70.400;2023-01-29T01:31:52;25.40;36.70
44982;DHT22;30716;41.740;-70.400;2023-01-29T01:34:19;25.50;36.70
44982;DHT22;30716;41.740;-70.400;2023-01-29T01:36:47;25.60;36.50
44982;DHT22;30716;41.740;-70.400;2023-01-29T01:39:13;25.70;37.10
44982;DHT22;30716;41.740;-70.400;2023-01-29T01:41:39;25.70;36.20
44982;DHT22;30716;41.740;-70.400;2023-01-29T01:44:06;25.80;36.20
44982;DHT22;30716;41.740;-70.400;2023-01-29T01:46:36;25.80;36.20
44982;DHT22;30716;41.740;-70.400;2023-01-29T01:51:38;25.80;35.90
44982;DHT22;30716;41.740;-70.400;2023-01-29T01:54:08;25.90;36.00
44982;DHT22;30716;41.740;-70.400;2023-01-29T01:56:41;25.90;35.90
44982;DHT22;30716;41.740;-70.400;2023-01-29T01:59:16;25.90;35.90
44982;DHT22;30716;41.740;-70.400;2023-01-29T02:01:48;25.90;35.90
44982;DHT22;30716;41.740;-70.400;2023-01-29T02:04:22;25.80;35.90
44982;DHT22;30716;41.740;-70.400;2023-01-29T02:07:09;25.90;35.90
44982;DHT22;30716;41.740;-70.400;2023-01-29T02:10:10;25.80;36.00
44982;DHT22;30716;41.740;-70.400;2023-01-29T02:12:37;25.80;35.90
44982;DHT22;30716;41.740;-70.400;2023-01-29T02:15:04;25.90;36.00
44982;DHT22;30716;41.740;-70.400;2023-01-29T02:17:31;25.90;36.00
44982;DHT22;30716;41.740;-70.400;2023-01-29T02:20:15;25.90;35.90
44982;DHT22;30716;41.740;-70.400;2023-01-29T02:23:16;25.90;35.90
44982;DHT22;30716;41.740;-70.400;2023-01-29T02:29:25;25.90;36.00
44982;DHT22;30716;41.740;-70.400;2023-01-29T02:35:00;25.70;36.40
44982;DHT22;30716;41.740;-70.400;2023-01-29T02:40:42;25.80;36.20
44982;DHT22;30716;41.740;-70.400;2023-01-29T02:45:59;25.70;36.50
44982;DHT22;30716;41.740;-70.400;2023-01-29T02:48:33;25.70;36.60
44982;DHT22;30716;41.740;-70.400;2023-01-29T02:51:06;25.80;36.50
44982;DHT22;30716;41.740;-70.400;2023-01-29T02:53:49;25.80;36.40
44982;DHT22;30716;41.740;-70.400;2023-01-29T02:56:36;25.80;36.20
44982;DHT22;30716;41.740;-70.400;2023-01-29T02:59:07;25.80;36.10
44982;DHT22;30716;41.740;-70.400;2023-01-29T03:02:02;25.80;36.20
44982;DHT22;30716;41.740;-70.400;2023-01-29T03:04:34;25.80;36.50
44982;DHT22;30716;41.740;-70.400;2023-01-29T03:07:08;25.70;36.40
44982;DHT22;30716;41.740;-70.400;2023-01-29T03:09:40;25.80;36.50
44982;DHT22;30716;41.740;-70.400;2023-01-29T03:12:12;25.70;36.40
44982;DHT22;30716;41.740;-70.400;2023-01-29T03:14:47;25.80;36.30
44982;DHT22;30716;41.740;-70.400;2023-01-29T03:17:41;25.80;36.20
44982;DHT22;30716;41.740;-70.400;2023-01-29T03:20:15;25.80;36.20
44982;DHT22;30716;41.740;-70.400;2023-01-29T03:22:47;25.80;36.20
44982;DHT22;30716;41.740;-70.400;2023-01-29T03:25:17;25.70;36.30
44982;DHT22;30716;41.740;-70.400;2023-01-29T03:28:03;25.70;36.30
44982;DHT22;30716;41.740;-70.400;2023-01-29T03:30:54;25.70;37.10
44982;DHT22;30716;41.740;-70.400;2023-01-29T03:34:04;25.70;36.30
44982;DHT22;30716;41.740;-70.400;2023-01-29T03:36:36;25.70;36.40
44982;DHT22;30716;41.740;-70.400;2023-01-29T03:39:08;25.70;36.40
44982;DHT22;30716;41.740;-70.400;2023-01-29T03:47:18;25.70;36.30
44982;DHT22;30716;41.740;-70.400;2023-01-29T03:58:22;25.80;36.20
44982;DHT22;30716;41.740;-70.400;2023-01-29T04:01:02;25.70;36.20
44982;DHT22;30716;41.740;-70.400;2023-01-29T04:03:34;25.70;36.20
44982;DHT22;30716;41.740;-70.400;2023-01-29T04:06:11;25.70;36.10
44982;DHT22;30716;41.740;-70.400;2023-01-29T04:11:26;25.70;36.20
44982;DHT22;30716;41.740;-70.400;2023-01-29T04:13:56;25.80;36.20
44982;DHT22;30716;41.740;-70.400;2023-01-29T04:16:38;25.70;36.00
44982;DHT22;30716;41.740;-70.400;2023-01-29T04:19:05;25.80;36.40
44982;DHT22;30716;41.740;-70.400;2023-01-29T04:21:32;25.80;36.30
44982;DHT22;30716;41.740;-70.400;2023-01-29T04:23:59;25.80;36.40
44982;DHT22;30716;41.740;-70.400;2023-01-29T04:32:18;25.80;36.10
44982;DHT22;30716;41.740;-70.400;2023-01-29T04:38:00;25.80;36.10
44982;DHT22;30716;41.740;-70.400;2023-01-29T04:40:58;25.80;36.00
44982;DHT22;30716;41.740;-70.400;2023-01-29T04:43:53;25.80;36.00
44982;DHT22;30716;41.740;-70.400;2023-01-29T04:46:30;25.90;36.10
44982;DHT22;30716;41.740;-70.400;2023-01-29T04:54:53;25.80;36.30
44982;DHT22;30716;41.740;-70.400;2023-01-29T04:57:09;25.90;36.30
44982;DHT22;30716;41.740;-70.400;2023-01-29T04:59:42;25.80;36.50
44982;DHT22;30716;41.740;-70.400;2023-01-29T05:02:12;25.80;36.40
44982;DHT22;30716;41.740;-70.400;2023-01-29T05:04:40;25.80;36.50
44982;DHT22;30716;41.740;-70.400;2023-01-29T05:07:11;25.80;36.70
44982;DHT22;30716;41.740;-70.400;2023-01-29T05:09:38;25.80;36.50
44982;DHT22;30716;41.740;-70.400;2023-01-29T05:12:08;25.90;36.50
44982;DHT22;30716;41.740;-70.400;2023-01-29T05:14:36;25.90;36.50
44982;DHT22;30716;41.740;-70.400;2023-01-29T05:17:09;25.90;36.50
44982;DHT22;30716;41.740;-70.400;2023-01-29T05:19:36;25.90;36.50
44982;DHT22;30716;41.740;-70.400;2023-01-29T05:22:04;25.90;36.40
44982;DHT22;30716;41.740;-70.400;2023-01-29T05:24:31;25.90;36.20
44982;DHT22;30716;41.740;-70.400;2023-01-29T05:26:57;25.90;36.20
44982;DHT22;30716;41.740;-70.400;2023-01-29T05:29:46;26.00;36.40
44982;DHT22;30716;41.740;-70.400;2023-01-29T05:32:13;26.00;36.20
44982;DHT22;30716;41.740;-70.400;2023-01-29T05:34:40;26.00;36.20
44982;DHT22;30716;41.740;-70.400;2023-01-29T05:37:06;26.00;36.10
44982;DHT22;30716;41.740;-70.400;2023-01-29T05:39:32;26.00;36.10
44982;DHT22;30716;41.740;-70.400;2023-01-29T05:41:58;26.00;36.10
44982;DHT22;30716;41.740;-70.400;2023-01-29T05:44:25;26.00;36.40
44982;DHT22;30716;41.740;-70.400;2023-01-29T05:46:51;25.90;36.30
44982;DHT22;30716;41.740;-70.400;2023-01-29T05:49:17;25.90;36.30
44982;DHT22;30716;41.740;-70.400;2023-01-29T05:51:45;26.00;36.30
44982;DHT22;30716;41.740;-70.400;2023-01-29T05:54:12;26.00;36.30
44982;DHT22;30716;41.740;-70.400;2023-01-29T05:56:38;26.00;36.20
44982;DHT22;30716;41.740;-70.400;2023-01-29T05:59:05;26.00;36.20
44982;DHT22;30716;41.740;-70.400;2023-01-29T06:01:32;25.90;36.30
44982;DHT22;30716;41.740;-70.400;2023-01-29T06:03:58;26.00;36.20
44982;DHT22;30716;41.740;-70.400;2023-01-29T06:06:24;26.00;36.40
44982;DHT22;30716;41.740;-70.400;2023-01-29T06:08:50;26.00;36.40
44982;DHT22;30716;41.740;-70.400;2023-01-29T06:11:16;26.00;36.50
44982;DHT22;30716;41.740;-70.400;2023-01-29T06:13:44;26.00;36.50
44982;DHT22;30716;41.740;-70.400;2023-01-29T06:16:11;26.00;36.50
44982;DHT22;30716;41.740;-70.400;2023-01-29T06:18:38;26.00;36.40
44982;DHT22;30716;41.740;-70.400;2023-01-29T06:21:06;26.00;36.40
44982;DHT22;30716;41.740;-70.400;2023-01-29T06:23:33;26.00;36.40
44982;DHT22;30716;41.740;-70.400;2023-01-29T06:26:00;26.00;36.70
44982;DHT22;30716;41.740;-70.400;2023-01-29T06:28:27;25.90;37.00
44982;DHT22;30716;41.740;-70.400;2023-01-29T06:30:56;25.90;36.50
44982;DHT22;30716;41.740;-70.400;2023-01-29T06:33:23;26.00;37.30
44982;DHT22;30716;41.740;-70.400;2023-01-29T06:35:54;26.00;36.50
44982;DHT22;30716;41.740;-70.400;2023-01-29T06:38:20;26.00;36.40
44982;DHT22;30716;41.740;-70.400;2023-01-29T06:40:46;26.10;36.40
44982;DHT22;30716;41.740;-70.400;2023-01-29T06:43:12;26.10;36.30
44982;DHT22;30716;41.740;-70.400;2023-01-29T06:45:44;26.10;36.60
44982;DHT22;30716;41.740;-70.400;2023-01-29T06:48:10;26.00;36.60
44982;DHT22;30716;41.740;-70.400;2023-01-29T06:50:36;26.00;36.60
44982;DHT22;30716;41.740;-70.400;2023-01-29T06:53:03;26.00;36.50
44982;DHT22;30716;41.740;-70.400;2023-01-29T06:55:29;26.00;36.50
44982;DHT22;30716;41.740;-70.400;2023-01-29T06:57:55;26.00;36.50
44982;DHT22;30716;41.740;-70.400;2023-01-29T07:00:21;26.00;36.60
44982;DHT22;30716;41.740;-70.400;2023-01-29T07:02:50;25.90;37.40
44982;DHT22;30716;41.740;-70.400;2023-01-29T07:05:17;25.90;36.60
44982;DHT22;30716;41.740;-70.400;2023-01-29T07:07:43;25.90;36.70
44982;DHT22;30716;41.740;-70.400;2023-01-29T07:10:09;25.90;36.70
44982;DHT22;30716;41.740;-70.400;2023-01-29T07:12:35;25.90;36.60
44982;DHT22;30716;41.740;-70.400;2023-01-29T07:15:02;26.00;36.70
44982;DHT22;30716;41.740;-70.400;2023-01-29T07:17:28;26.00;36.60
44982;DHT22;30716;41.740;-70.400;2023-01-29T07:19:54;26.00;36.60
44982;DHT22;30716;41.740;-70.400;2023-01-29T07:22:20;26.00;36.40
44982;DHT22;30716;41.740;-70.400;2023-01-29T07:24:46;26.00;36.50
44982;DHT22;30716;41.740;-70.400;2023-01-29T07:27:13;26.00;36.60
44982;DHT22;30716;41.740;-70.400;2023-01-29T07:29:39;25.90;36.60
44982;DHT22;30716;41.740;-70.400;2023-01-29T07:32:05;25.90;37.50
44982;DHT22;30716;41.740;-70.400;2023-01-29T07:34:32;25.90;36.70
44982;DHT22;30716;41.740;-70.400;2023-01-29T07:36:58;25.90;36.70
44982;DHT22;30716;41.740;-70.400;2023-01-29T07:39:24;25.90;36.80
44982;DHT22;30716;41.740;-70.400;2023-01-29T07:41:51;25.90;36.70
44982;DHT22;30716;41.740;-70.400;2023-01-29T07:44:17;25.80;36.80
44982;DHT22;30716;41.740;-70.400;2023-01-29T07:46:43;25.80;36.80
44982;DHT22;30716;41.740;-70.400;2023-01-29T07:49:10;25.80;36.70
44982;DHT22;30716;41.740;-70.400;2023-01-29T07:51:36;25.80;36.60
44982;DHT22;30716;41.740;-70.400;2023-01-29T07:54:02;25.80;36.50
44982;DHT22;30716;41.740;-70.400;2023-01-29T07:56:28;25.90;36.50
44982;DHT22;30716;41.740;-70.400;2023-01-29T07:58:55;25.90;36.50
44982;DHT22;30716;41.740;-70.400;2023-01-29T08:01:21;25.90;36.40
44982;DHT22;30716;41.740;-70.400;2023-01-29T08:03:47;25.90;36.50
44982;DHT22;30716;41.740;-70.400;2023-01-29T08:06:13;26.00;36.40
44982;DHT22;30716;41.740;-70.400;2023-01-29T08:08:39;26.00;36.30
44982;DHT22;30716;41.740;-70.400;2023-01-29T08:11:06;26.00;36.30
44982;DHT22;30716;41.740;-70.400;2023-01-29T08:13:32;25.90;36.40
44982;DHT22;30716;41.740;-70.400;2023-01-29T08:16:00;25.90;36.60
44982;DHT22;30716;41.740;-70.400;2023-01-29T08:18:26;25.80;36.50
44982;DHT22;30716;41.740;-70.400;2023-01-29T08:20:58;25.80;36.50
44982;DHT22;30716;41.740;-70.400;2023-01-29T08:23:24;25.80;36.50
44982;DHT22;30716;41.740;-70.400;2023-01-29T08:25:50;25.90;36.50
44982;DHT22;30716;41.740;-70.400;2023-01-29T08:28:17;25.80;36.40
44982;DHT22;30716;41.740;-70.400;2023-01-29T08:30:43;25.80;36.50
44982;DHT22;30716;41.740;-70.400;2023-01-29T08:33:09;25.80;36.60
44982;DHT22;30716;41.740;-70.400;2023-01-29T08:35:36;25.80;36.70
44982;DHT22;30716;41.740;-70.400;2023-01-29T08:38:03;25.80;37.00
44982;DHT22;30716;41.740;-70.400;2023-01-29T08:40:32;25.80;36.60
44982;DHT22;30716;41.740;-70.400;2023-01-29T08:42:59;25.80;36.50
44982;DHT22;30716;41.740;-70.400;2023-01-29T08:45:26;25.80;36.40
44982;DHT22;30716;41.740;-70.400;2023-01-29T08:47:52;25.90;36.40
44982;DHT22;30716;41.740;-70.400;2023-01-29T08:50:18;25.90;36.50
44982;DHT22;30716;41.740;-70.400;2023-01-29T08:52:45;25.80;36.40
44982;DHT22;30716;41.740;-70.400;2023-01-29T08:55:11;25.80;36.70
44982;DHT22;30716;41.740;-70.400;2023-01-29T08:57:38;25.80;37.40
44982;DHT22;30716;41.740;-70.400;2023-01-29T09:00:06;25.80;36.70
44982;DHT22;30716;41.740;-70.400;2023-01-29T09:02:32;25.80;36.70
44982;DHT22;30716;41.740;-70.400;2023-01-29T09:04:58;25.80;36.70
44982;DHT22;30716;41.740;-70.400;2023-01-29T09:07:24;25.80;36.90
44982;DHT22;30716;41.740;-70.400;2023-01-29T09:09:51;25.80;36.90
44982;DHT22;30716;41.740;-70.400;2023-01-29T09:12:17;25.90;36.80
44982;DHT22;30716;41.740;-70.400;2023-01-29T09:14:43;26.00;36.70
44982;DHT22;30716;41.740;-70.400;2023-01-29T09:17:09;26.00;36.60
44982;DHT22;30716;41.740;-70.400;2023-01-29T09:19:35;26.00;36.70
44982;DHT22;30716;41.740;-70.400;2023-01-29T09:22:01;26.00;36.70
44982;DHT22;30716;41.740;-70.400;2023-01-29T09:24:27;26.00;36.80
44982;DHT22;30716;41.740;-70.400;2023-01-29T09:26:54;25.90;36.70
44982;DHT22;30716;41.740;-70.400;2023-01-29T09:29:20;25.90;36.80
44982;DHT22;30716;41.740;-70.400;2023-01-29T09:31:46;25.80;37.00
44982;DHT22;30716;41.740;-70.400;2023-01-29T09:34:13;25.80;37.00
44982;DHT22;30716;41.740;-70.400;2023-01-29T09:36:39;25.70;37.10
44982;DHT22;30716;41.740;-70.400;2023-01-29T09:39:05;25.70;37.10
44982;DHT22;30716;41.740;-70.400;2023-01-29T09:44:12;25.60;37.20
44982;DHT22;30716;41.740;-70.400;2023-01-29T09:46:43;25.50;37.30
44982;DHT22;30716;41.740;-70.400;2023-01-29T09:49:42;25.40;37.40
44982;DHT22;30716;41.740;-70.400;2023-01-29T09:52:21;25.50;37.40
44982;DHT22;30716;41.740;-70.400;2023-01-29T09:55:09;25.40;37.30
44982;DHT22;30716;41.740;-70.400;2023-01-29T10:01:02;25.50;37.20
44982;DHT22;30716;41.740;-70.400;2023-01-29T10:11:31;25.70;37.00
44982;DHT22;30716;41.740;-70.400;2023-01-29T10:20:09;25.80;36.70
44982;DHT22;30716;41.740;-70.400;2023-01-29T10:25:21;25.80;36.80
44982;DHT22;30716;41.740;-70.400;2023-01-29T10:27:55;25.80;37.00
44982;DHT22;30716;41.740;-70.400;2023-01-29T10:30:32;25.80;36.90
44982;DHT22;30716;41.740;-70.400;2023-01-29T10:33:01;25.80;37.00
44982;DHT22;30716;41.740;-70.400;2023-01-29T10:35:46;25.80;37.10
44982;DHT22;30716;41.740;-70.400;2023-01-29T10:38:17;25.80;37.30
44982;DHT22;30716;41.740;-70.400;2023-01-29T10:52:34;25.80;36.90
44982;DHT22;30716;41.740;-70.400;2023-01-29T10:55:33;25.80;36.80
44982;DHT22;30716;41.740;-70.400;2023-01-29T10:58:35;25.80;36.70
44982;DHT22;30716;41.740;-70.400;2023-01-29T11:01:03;25.90;36.70
44982;DHT22;30716;41.740;-70.400;2023-01-29T11:03:31;25.90;36.80
44982;DHT22;30716;41.740;-70.400;2023-01-29T11:06:12;25.90;36.70
44982;DHT22;30716;41.740;-70.400;2023-01-29T11:11:18;25.90;36.70
44982;DHT22;30716;41.740;-70.400;2023-01-29T11:14:07;25.90;36.80
44982;DHT22;30716;41.740;-70.400;2023-01-29T11:16:45;25.90;36.80
44982;DHT22;30716;41.740;-70.400;2023-01-29T11:19:13;25.90;36.80
44982;DHT22;30716;41.740;-70.400;2023-01-29T11:21:59;25.90;36.80
44982;DHT22;30716;41.740;-70.400;2023-01-29T11:24:26;25.90;36.80
44982;DHT22;30716;41.740;-70.400;2023-01-29T11:26:57;25.90;36.80
44982;DHT22;30716;41.740;-70.400;2023-01-29T11:32:02;25.80;36.90
44982;DHT22;30716;41.740;-70.400;2023-01-29T11:34:29;25.90;36.90
44982;DHT22;30716;41.740;-70.400;2023-01-29T11:37:14;25.90;37.00
44982;DHT22;30716;41.740;-70.400;2023-01-29T11:39:45;25.90;37.10
44982;DHT22;30716;41.740;-70.400;2023-01-29T11:42:20;25.90;36.90
44982;DHT22;30716;41.740;-70.400;2023-01-29T11:44:46;25.90;36.60
44982;DHT22;30716;41.740;-70.400;2023-01-29T11:47:25;26.00;36.50
44982;DHT22;30716;41.740;-70.400;2023-01-29T11:49:58;26.00;36.40
44982;DHT22;30716;41.740;-70.400;2023-01-29T11:52:36;26.10;36.40
44982;DHT22;30716;41.740;-70.400;2023-01-29T11:55:24;26.10;36.30
44982;DHT22;30716;41.740;-70.400;2023-01-29T11:58:19;26.10;36.30
44982;DHT22;30716;41.740;-70.400;2023-01-29T12:00:49;26.00;36.30
44982;DHT22;30716;41.740;-70.400;2023-01-29T12:03:43;26.10;36.40
44982;DHT22;30716;41.740;-70.400;2023-01-29T12:06:20;26.10;36.30
44982;DHT22;30716;41.740;-70.400;2023-01-29T12:08:55;26.00;36.30
44982;DHT22;30716;41.740;-70.400;2023-01-29T12:11:33;25.90;36.50
44982;DHT22;30716;41.740;-70.400;2023-01-29T12:14:02;25.90;36.70
44982;DHT22;30716;41.740;-70.400;2023-01-29T12:16:32;25.90;36.70
44982;DHT22;30716;41.740;-70.400;2023-01-29T12:19:04;25.90;36.80
44982;DHT22;30716;41.740;-70.400;2023-01-29T12:21:46;25.90;36.70
44982;DHT22;30716;41.740;-70.400;2023-01-29T12:26:58;25.90;36.80
44982;DHT22;30716;41.740;-70.400;2023-01-29T12:32:28;25.90;36.80
44982;DHT22;30716;41.740;-70.400;2023-01-29T12:40:31;25.90;36.80
44982;DHT22;30716;41.740;-70.400;2023-01-29T12:43:04;25.90;37.00
44982;DHT22;30716;41.740;-70.400;2023-01-29T12:45:32;25.90;36.90
44982;DHT22;30716;41.740;-70.400;2023-01-29T12:48:06;25.90;36.90
44982;DHT22;30716;41.740;-70.400;2023-01-29T12:50:35;25.90;37.00
44982;DHT22;30716;41.740;-70.400;2023-01-29T12:55:44;25.90;37.10
44982;DHT22;30716;41.740;-70.400;2023-01-29T12:58:32;25.90;36.80
44982;DHT22;30716;41.740;-70.400;2023-01-29T13:01:23;25.90;36.90
44982;DHT22;30716;41.740;-70.400;2023-01-29T13:04:12;25.90;37.00
44982;DHT22;30716;41.740;-70.400;2023-01-29T13:06:43;25.90;37.00
44982;DHT22;30716;41.740;-70.400;2023-01-29T13:09:14;26.00;37.00
44982;DHT22;30716;41.740;-70.400;2023-01-29T13:11:50;26.00;36.80
44982;DHT22;30716;41.740;-70.400;2023-01-29T13:14:37;26.00;36.80
44982;DHT22;30716;41.740;-70.400;2023-01-29T13:17:17;26.00;37.00
44982;DHT22;30716;41.740;-70.400;2023-01-29T13:19:48;25.90;37.00
44982;DHT22;30716;41.740;-70.400;2023-01-29T13:24:44;25.80;37.20
44982;DHT22;30716;41.740;-70.400;2023-01-29T13:27:26;25.80;36.90
44982;DHT22;30716;41.740;-70.400;2023-01-29T13:29:53;25.90;37.00
44982;DHT22;30716;41.740;-70.400;2023-01-29T13:32:28;25.90;36.90
44982;DHT22;30716;41.740;-70.400;2023-01-29T13:35:03;25.90;36.80
44982;DHT22;30716;41.740;-70.400;2023-01-29T13:37:33;25.90;36.80
44982;DHT22;30716;41.740;-70.400;2023-01-29T13:40:02;25.90;36.90
44982;DHT22;30716;41.740;-70.400;2023-01-29T13:42:55;25.80;37.00
44982;DHT22;30716;41.740;-70.400;2023-01-29T13:45:44;25.80;37.00
44982;DHT22;30716;41.740;-70.400;2023-01-29T13:48:20;25.70;37.20
44982;DHT22;30716;41.740;-70.400;2023-01-29T13:50:49;25.70;37.20
44982;DHT22;30716;41.740;-70.400;2023-01-29T13:53:23;25.60;37.40
44982;DHT22;30716;41.740;-70.400;2023-01-29T13:55:50;25.50;37.40
44982;DHT22;30716;41.740;-70.400;2023-01-29T14:01:08;25.40;37.70
44982;DHT22;30716;41.740;-70.400;2023-01-29T14:03:44;25.30;37.90
44982;DHT22;30716;41.740;-70.400;2023-01-29T14:06:39;25.30;38.10
44982;DHT22;30716;41.740;-70.400;2023-01-29T14:11:54;25.20;38.40
44982;DHT22;30716;41.740;-70.400;2023-01-29T14:17:18;25.10;38.50
44982;DHT22;30716;41.740;-70.400;2023-01-29T14:19:53;25.00;38.70
44982;DHT22;30716;41.740;-70.400;2023-01-29T14:22:23;25.00;38.70
44982;DHT22;30716;41.740;-70.400;2023-01-29T14:25:02;24.90;38.70
44982;DHT22;30716;41.740;-70.400;2023-01-29T14:27:30;24.90;39.00
44982;DHT22;30716;41.740;-70.400;2023-01-29T14:30:07;24.90;39.00
44982;DHT22;30716;41.740;-70.400;2023-01-29T14:32:38;24.80;39.80
44982;DHT22;30716;41.740;-70.400;2023-01-29T14:35:20;24.80;39.20
44982;DHT22;30716;41.740;-70.400;2023-01-29T14:37:52;24.70;39.50
44982;DHT22;30716;41.740;-70.400;2023-01-29T14:43:19;24.60;39.40
44982;DHT22;30716;41.740;-70.400;2023-01-29T14:45:49;24.60;39.40
44982;DHT22;30716;41.740;-70.400;2023-01-29T14:48:38;24.60;39.40
44982;DHT22;30716;41.740;-70.400;2023-01-29T14:51:14;24.50;39.30
44982;DHT22;30716;41.740;-70.400;2023-01-29T14:56:57;24.50;39.30
44982;DHT22;30716;41.740;-70.400;2023-01-29T14:59:37;24.50;39.70
44982;DHT22;30716;41.740;-70.400;2023-01-29T15:02:24;24.40;39.70
44982;DHT22;30716;41.740;-70.400;2023-01-29T15:04:57;24.40;39.50
44982;DHT22;30716;41.740;-70.400;2023-01-29T15:07:59;24.40;39.70
44982;DHT22;30716;41.740;-70.400;2023-01-29T15:13:08;24.30;40.00
44982;DHT22;30716;41.740;-70.400;2023-01-29T15:15:55;24.30;39.90
44982;DHT22;30716;41.740;-70.400;2023-01-29T15:18:30;24.30;40.10
44982;DHT22;30716;41.740;-70.400;2023-01-29T15:21:11;24.20;40.20
44982;DHT22;30716;41.740;-70.400;2023-01-29T15:23:39;24.20;40.10
44982;DHT22;30716;41.740;-70.400;2023-01-29T15:26:08;24.10;40.10
44982;DHT22;30716;41.740;-70.400;2023-01-29T15:28:37;24.10;40.10
44982;DHT22;30716;41.740;-70.400;2023-01-29T15:31:06;24.10;41.00
44982;DHT22;30716;41.740;-70.400;2023-01-29T15:33:37;24.10;40.10
44982;DHT22;30716;41.740;-70.400;2023-01-29T15:36:06;24.10;40.40
44982;DHT22;30716;41.740;-70.400;2023-01-29T15:38:32;24.10;40.30
44982;DHT22;30716;41.740;-70.400;2023-01-29T15:41:00;24.10;40.40
44982;DHT22;30716;41.740;-70.400;2023-01-29T15:43:29;24.10;40.30
44982;DHT22;30716;41.740;-70.400;2023-01-29T15:49:00;24.10;40.60
44982;DHT22;30716;41.740;-70.400;2023-01-29T15:51:27;24.10;40.60
44982;DHT22;30716;41.740;-70.400;2023-01-29T15:54:05;24.00;40.40
44982;DHT22;30716;41.740;-70.400;2023-01-29T15:56:43;24.00;40.60
44982;DHT22;30716;41.740;-70.400;2023-01-29T15:59:20;24.00;40.60
44982;DHT22;30716;41.740;-70.400;2023-01-29T16:01:47;24.00;40.60
44982;DHT22;30716;41.740;-70.400;2023-01-29T16:04:18;24.00;40.70
44982;DHT22;30716;41.740;-70.400;2023-01-29T16:06:46;24.00;40.70
44982;DHT22;30716;41.740;-70.400;2023-01-29T16:09:17;24.00;40.90
44982;DHT22;30716;41.740;-70.400;2023-01-29T16:11:45;24.00;40.90
44982;DHT22;30716;41.740;-70.400;2023-01-29T16:14:18;23.90;40.60
44982;DHT22;30716;41.740;-70.400;2023-01-29T16:16:45;23.90;40.80
44982;DHT22;30716;41.740;-70.400;2023-01-29T16:19:28;23.90;40.70
44982;DHT22;30716;41.740;-70.400;2023-01-29T16:22:02;23.90;40.70
44982;DHT22;30716;41.740;-70.400;2023-01-29T16:24:30;23.80;40.50
44982;DHT22;30716;41.740;-70.400;2023-01-29T16:26:59;23.80;40.70
44982;DHT22;30716;41.740;-70.400;2023-01-29T16:29:31;23.80;40.80
44982;DHT22;30716;41.740;-70.400;2023-01-29T16:32:00;23.90;41.00
44982;DHT22;30716;41.740;-70.400;2023-01-29T16:34:41;23.80;41.20
44982;DHT22;30716;41.740;-70.400;2023-01-29T16:37:24;23.80;41.10
44982;DHT22;30716;41.740;-70.400;2023-01-29T16:39:51;23.80;41.10
44982;DHT22;30716;41.740;-70.400;2023-01-29T16:42:18;23.80;41.00
44982;DHT22;30716;41.740;-70.400;2023-01-29T16:45:00;23.80;41.00
44982;DHT22;30716;41.740;-70.400;2023-01-29T16:50:00;23.80;41.10
44982;DHT22;30716;41.740;-70.400;2023-01-29T16:55:18;23.80;41.00
44982;DHT22;30716;41.740;-70.400;2023-01-29T16:57:49;23.70;41.40
44982;DHT22;30716;41.740;-70.400;2023-01-29T17:00:25;23.70;41.10
44982;DHT22;30716;41.740;-70.400;2023-01-29T17:02:54;23.60;41.10
44982;DHT22;30716;41.740;-70.400;2023-01-29T17:05:26;23.60;41.50
44982;DHT22;30716;41.740;-70.400;2023-01-29T17:07:55;23.60;41.10
44982;DHT22;30716;41.740;-70.400;2023-01-29T17:10:23;23.60;41.60
44982;DHT22;30716;41.740;-70.400;2023-01-29T17:18:23;23.70;41.50
44982;DHT22;30716;41.740;-70.400;2023-01-29T17:20:50;23.70;41.30
44982;DHT22;30716;41.740;-70.400;2023-01-29T17:23:20;23.70;41.40
44982;DHT22;30716;41.740;-70.400;2023-01-29T17:25:47;23.90;40.60
44982;DHT22;30716;41.740;-70.400;2023-01-29T17:28:15;24.10;40.20
44982;DHT22;30716;41.740;-70.400;2023-01-29T17:30:42;24.30;40.00
44982;DHT22;30716;41.740;-70.400;2023-01-29T17:33:14;24.50;39.30
44982;DHT22;30716;41.740;-70.400;2023-01-29T17:35:42;24.60;39.40
44982;DHT22;30716;41.740;-70.400;2023-01-29T17:38:13;24.70;39.40
44982;DHT22;30716;41.740;-70.400;2023-01-29T17:40:50;24.80;39.10
44982;DHT22;30716;41.740;-70.400;2023-01-29T17:43:17;24.80;38.90
44982;DHT22;30716;41.740;-70.400;2023-01-29T17:45:43;24.80;38.80